sensor_id;sensor_type;location;lat;lon;timestamp;P1;durP1;ratioP1;P2;durP2;ratioP2
25349;SDS011;13302;48.796;11.978;2023-04-24T00:02:30;1.40;;;1.30;;
25349;SDS011;13302;48.796;11.978;2023-04-24T00:05:18;1.20;;;1.20;;
25349;SDS011;13302;48.796;11.978;2023-04-24T00:08:05;1.43;;;1.40;;
25349;SDS011;13302;48.796;11.978;2023-04-24T00:10:52;1.97;;;1.30;;
25349;SDS011;13302;48.796;11.978;2023-04-24T00:13:39;1.60;;;1.50;;
25349;SDS011;13302;48.796;11.978;2023-04-24T00:16:26;1.40;;;1.40;;
25349;SDS011;13302;48.796;11.978;2023-04-24T00:19:14;1.37;;;1.10;;
25349;SDS011;13302;48.796;11.978;2023-04-24T00:22:01;1.23;;;1.13;;
25349;SDS011;13302;48.796;11.978;2023-04-24T00:24:49;1.40;;;1.30;;
25349;SDS011;13302;48.796;11.978;2023-04-24T00:27:36;2.03;;;1.47;;
25349;SDS011;13302;48.796;11.978;2023-04-24T00:30:24;2.90;;;1.60;;
25349;SDS011;13302;48.796;11.978;2023-04-24T00:33:11;1.47;;;1.47;;
25349;SDS011;13302;48.796;11.978;2023-04-24T00:35:58;2.13;;;1.50;;
25349;SDS011;13302;48.796;11.978;2023-04-24T00:38:45;1.40;;;1.30;;
25349;SDS011;13302;48.796;11.978;2023-04-24T00:41:33;3.10;;;1.40;;
25349;SDS011;13302;48.796;11.978;2023-04-24T00:44:20;1.33;;;1.33;;
25349;SDS011;13302;48.796;11.978;2023-04-24T00:47:07;1.70;;;1.60;;
25349;SDS011;13302;48.796;11.978;2023-04-24T00:49:54;1.63;;;1.53;;
25349;SDS011;13302;48.796;11.978;2023-04-24T00:52:41;1.33;;;1.33;;
25349;SDS011;13302;48.796;11.978;2023-04-24T00:55:29;1.70;;;1.30;;
25349;SDS011;13302;48.796;11.978;2023-04-24T00:58:16;2.20;;;1.50;;
25349;SDS011;13302;48.796;11.978;2023-04-24T01:01:03;1.70;;;1.60;;
25349;SDS011;13302;48.796;11.978;2023-04-24T01:03:53;1.17;;;1.17;;
25349;SDS011;13302;48.796;11.978;2023-04-24T01:06:42;1.10;;;1.10;;
25349;SDS011;13302;48.796;11.978;2023-04-24T01:09:30;1.33;;;1.23;;
25349;SDS011;13302;48.796;11.978;2023-04-24T01:12:18;1.90;;;1.30;;
25349;SDS011;13302;48.796;11.978;2023-04-24T01:15:05;1.37;;;1.10;;
25349;SDS011;13302;48.796;11.978;2023-04-24T01:17:54;1.00;;;1.00;;
25349;SDS011;13302;48.796;11.978;2023-04-24T01:20:42;1.43;;;1.30;;
25349;SDS011;13302;48.796;11.978;2023-04-24T01:23:31;1.40;;;1.30;;
25349;SDS011;13302;48.796;11.978;2023-04-24T01:26:19;1.80;;;1.23;;
25349;SDS011;13302;48.796;11.978;2023-04-24T01:29:06;1.60;;;1.00;;
25349;SDS011;13302;48.796;11.978;2023-04-24T01:31:54;1.00;;;1.00;;
25349;SDS011;13302;48.796;11.978;2023-04-24T01:34:41;1.13;;;1.03;;
25349;SDS011;13302;48.796;11.978;2023-04-24T01:37:29;1.03;;;1.03;;
25349;SDS011;13302;48.796;11.978;2023-04-24T01:40:16;1.20;;;1.20;;
25349;SDS011;13302;48.796;11.978;2023-04-24T01:43:03;1.10;;;1.10;;
25349;SDS011;13302;48.796;11.978;2023-04-24T01:45:50;1.10;;;1.10;;
25349;SDS011;13302;48.796;11.978;2023-04-24T01:48:37;1.70;;;1.13;;
25349;SDS011;13302;48.796;11.978;2023-04-24T01:51:24;1.17;;;1.10;;
25349;SDS011;13302;48.796;11.978;2023-04-24T01:54:11;1.20;;;1.03;;
25349;SDS011;13302;48.796;11.978;2023-04-24T01:56:58;1.40;;;1.30;;
25349;SDS011;13302;48.796;11.978;2023-04-24T01:59:47;1.00;;;1.00;;
25349;SDS011;13302;48.796;11.978;2023-04-24T02:02:34;1.07;;;0.93;;
25349;SDS011;13302;48.796;11.978;2023-04-24T02:05:22;1.20;;;1.20;;
25349;SDS011;13302;48.796;11.978;2023-04-24T02:08:09;1.00;;;1.00;;
25349;SDS011;13302;48.796;11.978;2023-04-24T02:10:57;1.63;;;1.17;;
25349;SDS011;13302;48.796;11.978;2023-04-24T02:13:44;1.87;;;1.10;;
25349;SDS011;13302;48.796;11.978;2023-04-24T02:16:31;1.60;;;1.10;;
25349;SDS011;13302;48.796;11.978;2023-04-24T02:19:19;1.00;;;1.00;;
25349;SDS011;13302;48.796;11.978;2023-04-24T02:22:06;1.07;;;1.07;;
25349;SDS011;13302;48.796;11.978;2023-04-24T02:24:53;0.93;;;0.93;;
25349;SDS011;13302;48.796;11.978;2023-04-24T02:27:40;0.90;;;0.90;;
25349;SDS011;13302;48.796;11.978;2023-04-24T02:30:27;1.17;;;0.83;;
25349;SDS011;13302;48.796;11.978;2023-04-24T02:33:14;0.93;;;0.93;;
25349;SDS011;13302;48.796;11.978;2023-04-24T02:36:02;0.80;;;0.80;;
25349;SDS011;13302;48.796;11.978;2023-04-24T02:38:49;0.90;;;0.90;;
25349;SDS011;13302;48.796;11.978;2023-04-24T02:41:36;1.30;;;1.20;;
25349;SDS011;13302;48.796;11.978;2023-04-24T02:44:23;0.93;;;0.93;;
25349;SDS011;13302;48.796;11.978;2023-04-24T02:47:10;1.03;;;1.03;;
25349;SDS011;13302;48.796;11.978;2023-04-24T02:49:57;0.80;;;0.80;;
25349;SDS011;13302;48.796;11.978;2023-04-24T02:52:44;1.00;;;1.00;;
25349;SDS011;13302;48.796;11.978;2023-04-24T02:55:31;0.90;;;0.90;;
25349;SDS011;13302;48.796;11.978;2023-04-24T02:58:18;0.90;;;0.90;;
25349;SDS011;13302;48.796;11.978;2023-04-24T03:01:06;1.70;;;1.10;;
25349;SDS011;13302;48.796;11.978;2023-04-24T03:03:53;1.07;;;1.07;;
25349;SDS011;13302;48.796;11.978;2023-04-24T03:06:41;2.33;;;1.00;;
25349;SDS011;13302;48.796;11.978;2023-04-24T03:09:28;0.83;;;0.83;;
25349;SDS011;13302;48.796;11.978;2023-04-24T03:12:15;1.00;;;1.00;;
25349;SDS011;13302;48.796;11.978;2023-04-24T03:15:04;1.03;;;1.03;;
25349;SDS011;13302;48.796;11.978;2023-04-24T03:17:52;1.10;;;1.00;;
25349;SDS011;13302;48.796;11.978;2023-04-24T03:20:42;1.10;;;1.10;;
25349;SDS011;13302;48.796;11.978;2023-04-24T03:23:29;1.00;;;1.00;;
25349;SDS011;13302;48.796;11.978;2023-04-24T03:26:16;1.00;;;1.00;;
25349;SDS011;13302;48.796;11.978;2023-04-24T03:29:16;1.03;;;0.90;;
25349;SDS011;13302;48.796;11.978;2023-04-24T03:32:02;0.67;;;0.67;;
25349;SDS011;13302;48.796;11.978;2023-04-24T03:34:50;0.90;;;0.90;;
25349;SDS011;13302;48.796;11.978;2023-04-24T03:37:37;0.80;;;0.80;;
25349;SDS011;13302;48.796;11.978;2023-04-24T03:40:44;1.00;;;0.93;;
25349;SDS011;13302;48.796;11.978;2023-04-24T03:43:51;0.80;;;0.80;;
25349;SDS011;13302;48.796;11.978;2023-04-24T03:46:39;0.70;;;0.70;;
25349;SDS011;13302;48.796;11.978;2023-04-24T03:49:26;1.07;;;0.80;;
25349;SDS011;13302;48.796;11.978;2023-04-24T03:52:13;0.70;;;0.70;;
25349;SDS011;13302;48.796;11.978;2023-04-24T03:55:00;0.70;;;0.70;;
25349;SDS011;13302;48.796;11.978;2023-04-24T03:57:49;0.80;;;0.80;;
25349;SDS011;13302;48.796;11.978;2023-04-24T04:00:41;0.70;;;0.70;;
25349;SDS011;13302;48.796;11.978;2023-04-24T04:03:48;0.70;;;0.70;;
25349;SDS011;13302;48.796;11.978;2023-04-24T04:06:39;0.70;;;0.70;;
25349;SDS011;13302;48.796;11.978;2023-04-24T04:09:26;0.80;;;0.80;;
25349;SDS011;13302;48.796;11.978;2023-04-24T04:12:14;0.67;;;0.67;;
25349;SDS011;13302;48.796;11.978;2023-04-24T04:15:02;0.83;;;0.63;;
25349;SDS011;13302;48.796;11.978;2023-04-24T04:17:51;0.80;;;0.80;;
25349;SDS011;13302;48.796;11.978;2023-04-24T04:20:38;0.70;;;0.70;;
25349;SDS011;13302;48.796;11.978;2023-04-24T04:23:26;0.63;;;0.63;;
25349;SDS011;13302;48.796;11.978;2023-04-24T04:26:32;2.07;;;0.83;;
25349;SDS011;13302;48.796;11.978;2023-04-24T04:29:24;0.70;;;0.70;;
25349;SDS011;13302;48.796;11.978;2023-04-24T04:32:12;0.60;;;0.60;;
25349;SDS011;13302;48.796;11.978;2023-04-24T04:35:00;0.80;;;0.80;;
25349;SDS011;13302;48.796;11.978;2023-04-24T04:37:52;0.73;;;0.70;;
25349;SDS011;13302;48.796;11.978;2023-04-24T04:40:53;0.77;;;0.77;;
25349;SDS011;13302;48.796;11.978;2023-04-24T04:43:42;0.80;;;0.80;;
25349;SDS011;13302;48.796;11.978;2023-04-24T04:46:29;0.80;;;0.80;;
25349;SDS011;13302;48.796;11.978;2023-04-24T04:49:26;0.80;;;0.80;;
25349;SDS011;13302;48.796;11.978;2023-04-24T04:52:15;0.73;;;0.73;;
25349;SDS011;13302;48.796;11.978;2023-04-24T04:55:06;0.60;;;0.60;;
25349;SDS011;13302;48.796;11.978;2023-04-24T04:58:13;0.87;;;0.80;;
25349;SDS011;13302;48.796;11.978;2023-04-24T05:01:00;0.60;;;0.60;;
25349;SDS011;13302;48.796;11.978;2023-04-24T05:03:52;0.53;;;0.53;;
25349;SDS011;13302;48.796;11.978;2023-04-24T05:06:40;0.60;;;0.60;;
25349;SDS011;13302;48.796;11.978;2023-04-24T05:09:27;0.70;;;0.70;;
25349;SDS011;13302;48.796;11.978;2023-04-24T05:12:21;0.70;;;0.70;;
25349;SDS011;13302;48.796;11.978;2023-04-24T05:15:11;2.00;;;0.90;;
25349;SDS011;13302;48.796;11.978;2023-04-24T05:17:59;1.00;;;0.70;;
25349;SDS011;13302;48.796;11.978;2023-04-24T05:20:47;0.50;;;0.50;;
25349;SDS011;13302;48.796;11.978;2023-04-24T05:23:34;0.90;;;0.67;;
25349;SDS011;13302;48.796;11.978;2023-04-24T05:26:21;0.93;;;0.60;;
25349;SDS011;13302;48.796;11.978;2023-04-24T05:29:09;0.67;;;0.67;;
25349;SDS011;13302;48.796;11.978;2023-04-24T05:31:56;0.70;;;0.70;;
25349;SDS011;13302;48.796;11.978;2023-04-24T05:34:44;0.40;;;0.40;;
25349;SDS011;13302;48.796;11.978;2023-04-24T05:37:31;0.60;;;0.60;;
25349;SDS011;13302;48.796;11.978;2023-04-24T05:40:19;0.63;;;0.63;;
25349;SDS011;13302;48.796;11.978;2023-04-24T05:43:06;0.83;;;0.70;;
25349;SDS011;13302;48.796;11.978;2023-04-24T05:45:53;0.50;;;0.50;;
25349;SDS011;13302;48.796;11.978;2023-04-24T05:48:40;0.63;;;0.63;;
25349;SDS011;13302;48.796;11.978;2023-04-24T05:51:27;0.50;;;0.50;;
25349;SDS011;13302;48.796;11.978;2023-04-24T05:54:14;1.67;;;0.70;;
25349;SDS011;13302;48.796;11.978;2023-04-24T05:57:01;0.50;;;0.50;;
25349;SDS011;13302;48.796;11.978;2023-04-24T06:00:07;0.73;;;0.73;;
25349;SDS011;13302;48.796;11.978;2023-04-24T06:03:08;0.77;;;0.77;;
25349;SDS011;13302;48.796;11.978;2023-04-24T06:05:55;0.50;;;0.50;;
25349;SDS011;13302;48.796;11.978;2023-04-24T06:08:43;1.20;;;0.70;;
25349;SDS011;13302;48.796;11.978;2023-04-24T06:11:30;0.60;;;0.60;;
25349;SDS011;13302;48.796;11.978;2023-04-24T06:14:19;0.70;;;0.70;;
25349;SDS011;13302;48.796;11.978;2023-04-24T06:17:26;0.80;;;0.80;;
25349;SDS011;13302;48.796;11.978;2023-04-24T06:20:13;0.93;;;0.80;;
25349;SDS011;13302;48.796;11.978;2023-04-24T06:23:00;1.07;;;0.60;;
25349;SDS011;13302;48.796;11.978;2023-04-24T06:25:48;1.43;;;0.70;;
25349;SDS011;13302;48.796;11.978;2023-04-24T06:28:35;0.87;;;0.60;;
25349;SDS011;13302;48.796;11.978;2023-04-24T06:31:22;0.90;;;0.90;;
25349;SDS011;13302;48.796;11.978;2023-04-24T06:34:09;0.50;;;0.50;;
25349;SDS011;13302;48.796;11.978;2023-04-24T06:36:56;1.20;;;0.80;;
25349;SDS011;13302;48.796;11.978;2023-04-24T06:39:43;0.90;;;0.90;;
25349;SDS011;13302;48.796;11.978;2023-04-24T06:42:30;0.80;;;0.80;;
25349;SDS011;13302;48.796;11.978;2023-04-24T06:45:18;0.70;;;0.70;;
25349;SDS011;13302;48.796;11.978;2023-04-24T06:48:05;2.00;;;1.00;;
25349;SDS011;13302;48.796;11.978;2023-04-24T06:50:52;0.83;;;0.77;;
25349;SDS011;13302;48.796;11.978;2023-04-24T06:53:39;0.70;;;0.70;;
25349;SDS011;13302;48.796;11.978;2023-04-24T06:56:26;1.23;;;0.90;;
25349;SDS011;13302;48.796;11.978;2023-04-24T06:59:13;1.70;;;1.00;;
25349;SDS011;13302;48.796;11.978;2023-04-24T07:02:00;0.73;;;0.73;;
25349;SDS011;13302;48.796;11.978;2023-04-24T07:04:47;1.13;;;0.90;;
25349;SDS011;13302;48.796;11.978;2023-04-24T07:07:34;2.57;;;0.70;;
25349;SDS011;13302;48.796;11.978;2023-04-24T07:10:24;1.17;;;0.90;;
25349;SDS011;13302;48.796;11.978;2023-04-24T07:13:12;0.93;;;0.80;;
25349;SDS011;13302;48.796;11.978;2023-04-24T07:15:59;1.27;;;0.67;;
25349;SDS011;13302;48.796;11.978;2023-04-24T07:18:46;0.70;;;0.70;;
25349;SDS011;13302;48.796;11.978;2023-04-24T07:21:33;0.57;;;0.57;;
25349;SDS011;13302;48.796;11.978;2023-04-24T07:24:21;0.93;;;0.93;;
25349;SDS011;13302;48.796;11.978;2023-04-24T07:27:10;1.27;;;0.80;;
25349;SDS011;13302;48.796;11.978;2023-04-24T07:29:57;1.60;;;0.90;;
25349;SDS011;13302;48.796;11.978;2023-04-24T07:32:43;0.80;;;0.80;;
25349;SDS011;13302;48.796;11.978;2023-04-24T07:35:31;1.20;;;0.90;;
25349;SDS011;13302;48.796;11.978;2023-04-24T07:38:18;0.80;;;0.80;;
25349;SDS011;13302;48.796;11.978;2023-04-24T07:41:08;0.73;;;0.67;;
25349;SDS011;13302;48.796;11.978;2023-04-24T07:43:55;0.60;;;0.60;;
25349;SDS011;13302;48.796;11.978;2023-04-24T07:46:42;0.60;;;0.60;;
25349;SDS011;13302;48.796;11.978;2023-04-24T07:49:29;0.77;;;0.77;;
25349;SDS011;13302;48.796;11.978;2023-04-24T07:52:17;1.03;;;0.70;;
25349;SDS011;13302;48.796;11.978;2023-04-24T07:55:04;0.80;;;0.80;;
25349;SDS011;13302;48.796;11.978;2023-04-24T07:57:51;1.33;;;0.80;;
25349;SDS011;13302;48.796;11.978;2023-04-24T08:00:38;0.60;;;0.60;;
25349;SDS011;13302;48.796;11.978;2023-04-24T08:03:25;0.83;;;0.80;;
25349;SDS011;13302;48.796;11.978;2023-04-24T08:06:12;0.70;;;0.70;;
25349;SDS011;13302;48.796;11.978;2023-04-24T08:09:00;0.80;;;0.80;;
25349;SDS011;13302;48.796;11.978;2023-04-24T08:11:47;0.60;;;0.60;;
25349;SDS011;13302;48.796;11.978;2023-04-24T08:14:34;0.70;;;0.70;;
25349;SDS011;13302;48.796;11.978;2023-04-24T08:17:21;0.87;;;0.70;;
25349;SDS011;13302;48.796;11.978;2023-04-24T08:20:11;1.30;;;0.60;;
25349;SDS011;13302;48.796;11.978;2023-04-24T08:23:02;0.77;;;0.77;;
25349;SDS011;13302;48.796;11.978;2023-04-24T08:25:49;0.60;;;0.60;;
25349;SDS011;13302;48.796;11.978;2023-04-24T08:28:36;0.60;;;0.60;;
25349;SDS011;13302;48.796;11.978;2023-04-24T08:31:23;1.10;;;0.70;;
25349;SDS011;13302;48.796;11.978;2023-04-24T08:34:11;3.00;;;0.70;;
25349;SDS011;13302;48.796;11.978;2023-04-24T08:36:58;3.40;;;0.80;;
25349;SDS011;13302;48.796;11.978;2023-04-24T08:39:45;1.03;;;0.60;;
25349;SDS011;13302;48.796;11.978;2023-04-24T08:42:33;0.80;;;0.80;;
25349;SDS011;13302;48.796;11.978;2023-04-24T08:45:22;0.83;;;0.80;;
25349;SDS011;13302;48.796;11.978;2023-04-24T08:48:12;1.33;;;0.77;;
25349;SDS011;13302;48.796;11.978;2023-04-24T08:51:15;0.80;;;0.80;;
25349;SDS011;13302;48.796;11.978;2023-04-24T08:54:04;0.73;;;0.73;;
25349;SDS011;13302;48.796;11.978;2023-04-24T08:56:51;1.13;;;0.90;;
25349;SDS011;13302;48.796;11.978;2023-04-24T08:59:40;0.90;;;0.90;;
25349;SDS011;13302;48.796;11.978;2023-04-24T09:02:28;0.90;;;0.90;;
25349;SDS011;13302;48.796;11.978;2023-04-24T09:05:17;1.00;;;1.00;;
25349;SDS011;13302;48.796;11.978;2023-04-24T09:08:05;0.90;;;0.90;;
25349;SDS011;13302;48.796;11.978;2023-04-24T09:10:54;1.40;;;0.90;;
25349;SDS011;13302;48.796;11.978;2023-04-24T09:13:41;0.70;;;0.70;;
25349;SDS011;13302;48.796;11.978;2023-04-24T09:16:29;0.83;;;0.83;;
25349;SDS011;13302;48.796;11.978;2023-04-24T09:19:22;0.80;;;0.80;;
25349;SDS011;13302;48.796;11.978;2023-04-24T09:22:12;0.87;;;0.87;;
25349;SDS011;13302;48.796;11.978;2023-04-24T09:25:03;1.00;;;1.00;;
25349;SDS011;13302;48.796;11.978;2023-04-24T09:27:53;0.90;;;0.90;;
25349;SDS011;13302;48.796;11.978;2023-04-24T09:30:41;0.80;;;0.80;;
25349;SDS011;13302;48.796;11.978;2023-04-24T09:33:28;0.83;;;0.83;;
25349;SDS011;13302;48.796;11.978;2023-04-24T09:36:17;0.80;;;0.80;;
25349;SDS011;13302;48.796;11.978;2023-04-24T09:39:13;0.90;;;0.90;;
25349;SDS011;13302;48.796;11.978;2023-04-24T09:42:06;0.80;;;0.80;;
25349;SDS011;13302;48.796;11.978;2023-04-24T09:44:53;0.80;;;0.80;;
25349;SDS011;13302;48.796;11.978;2023-04-24T09:47:52;1.10;;;1.00;;
25349;SDS011;13302;48.796;11.978;2023-04-24T09:50:45;1.00;;;1.00;;
25349;SDS011;13302;48.796;11.978;2023-04-24T09:53:33;1.03;;;1.03;;
25349;SDS011;13302;48.796;11.978;2023-04-24T09:56:24;0.97;;;0.97;;
25349;SDS011;13302;48.796;11.978;2023-04-24T09:59:17;1.20;;;1.10;;
25349;SDS011;13302;48.796;11.978;2023-04-24T10:02:15;0.90;;;0.90;;
25349;SDS011;13302;48.796;11.978;2023-04-24T10:05:04;1.07;;;0.90;;
25349;SDS011;13302;48.796;11.978;2023-04-24T10:07:54;1.03;;;1.00;;
25349;SDS011;13302;48.796;11.978;2023-04-24T10:10:44;0.80;;;0.80;;
25349;SDS011;13302;48.796;11.978;2023-04-24T10:13:32;1.00;;;1.00;;
25349;SDS011;13302;48.796;11.978;2023-04-24T10:16:20;0.97;;;0.87;;
25349;SDS011;13302;48.796;11.978;2023-04-24T10:19:09;1.43;;;0.90;;
25349;SDS011;13302;48.796;11.978;2023-04-24T10:21:57;2.10;;;0.80;;
25349;SDS011;13302;48.796;11.978;2023-04-24T10:24:44;1.00;;;1.00;;
25349;SDS011;13302;48.796;11.978;2023-04-24T10:27:32;1.13;;;1.03;;
25349;SDS011;13302;48.796;11.978;2023-04-24T10:30:19;1.10;;;1.00;;
25349;SDS011;13302;48.796;11.978;2023-04-24T10:33:07;1.17;;;1.17;;
25349;SDS011;13302;48.796;11.978;2023-04-24T10:35:55;2.63;;;1.23;;
25349;SDS011;13302;48.796;11.978;2023-04-24T10:38:45;1.13;;;1.07;;
25349;SDS011;13302;48.796;11.978;2023-04-24T10:41:33;1.20;;;1.20;;
25349;SDS011;13302;48.796;11.978;2023-04-24T10:44:24;1.10;;;1.10;;
25349;SDS011;13302;48.796;11.978;2023-04-24T10:47:15;0.90;;;0.90;;
25349;SDS011;13302;48.796;11.978;2023-04-24T10:50:02;1.00;;;0.90;;
25349;SDS011;13302;48.796;11.978;2023-04-24T10:52:55;0.80;;;0.80;;
25349;SDS011;13302;48.796;11.978;2023-04-24T10:56:00;1.20;;;0.93;;
25349;SDS011;13302;48.796;11.978;2023-04-24T10:58:50;1.13;;;1.00;;
25349;SDS011;13302;48.796;11.978;2023-04-24T11:01:39;0.80;;;0.80;;
25349;SDS011;13302;48.796;11.978;2023-04-24T11:04:30;0.80;;;0.80;;
25349;SDS011;13302;48.796;11.978;2023-04-24T11:07:19;2.20;;;1.30;;
25349;SDS011;13302;48.796;11.978;2023-04-24T11:10:07;2.20;;;1.20;;
25349;SDS011;13302;48.796;11.978;2023-04-24T11:12:54;1.10;;;1.10;;
25349;SDS011;13302;48.796;11.978;2023-04-24T11:15:41;0.90;;;0.90;;
25349;SDS011;13302;48.796;11.978;2023-04-24T11:18:38;1.47;;;1.20;;
25349;SDS011;13302;48.796;11.978;2023-04-24T11:21:32;0.80;;;0.80;;
25349;SDS011;13302;48.796;11.978;2023-04-24T11:27:22;0.50;;;0.50;;
25349;SDS011;13302;48.796;11.978;2023-04-24T11:30:09;0.60;;;0.60;;
25349;SDS011;13302;48.796;11.978;2023-04-24T11:33:01;0.47;;;0.47;;
25349;SDS011;13302;48.796;11.978;2023-04-24T11:35:52;0.53;;;0.53;;
25349;SDS011;13302;48.796;11.978;2023-04-24T11:38:39;1.10;;;0.60;;
25349;SDS011;13302;48.796;11.978;2023-04-24T11:41:26;1.23;;;0.60;;
25349;SDS011;13302;48.796;11.978;2023-04-24T11:44:14;0.50;;;0.50;;
25349;SDS011;13302;48.796;11.978;2023-04-24T11:47:07;0.63;;;0.63;;
25349;SDS011;13302;48.796;11.978;2023-04-24T11:49:54;0.47;;;0.47;;
25349;SDS011;13302;48.796;11.978;2023-04-24T11:52:45;0.67;;;0.60;;
25349;SDS011;13302;48.796;11.978;2023-04-24T11:55:33;0.63;;;0.63;;
25349;SDS011;13302;48.796;11.978;2023-04-24T11:58:20;0.50;;;0.50;;
25349;SDS011;13302;48.796;11.978;2023-04-24T12:01:08;0.60;;;0.50;;
25349;SDS011;13302;48.796;11.978;2023-04-24T12:03:59;1.03;;;1.03;;
25349;SDS011;13302;48.796;11.978;2023-04-24T12:07:03;0.60;;;0.60;;
25349;SDS011;13302;48.796;11.978;2023-04-24T12:09:55;0.67;;;0.67;;
25349;SDS011;13302;48.796;11.978;2023-04-24T12:12:45;0.80;;;0.80;;
25349;SDS011;13302;48.796;11.978;2023-04-24T12:15:33;0.83;;;0.83;;
25349;SDS011;13302;48.796;11.978;2023-04-24T12:18:23;0.80;;;0.80;;
25349;SDS011;13302;48.796;11.978;2023-04-24T12:21:14;1.10;;;1.10;;
25349;SDS011;13302;48.796;11.978;2023-04-24T12:24:09;1.10;;;1.00;;
25349;SDS011;13302;48.796;11.978;2023-04-24T12:26:56;0.80;;;0.80;;
25349;SDS011;13302;48.796;11.978;2023-04-24T12:29:55;1.17;;;1.17;;
25349;SDS011;13302;48.796;11.978;2023-04-24T12:32:47;1.17;;;1.17;;
25349;SDS011;13302;48.796;11.978;2023-04-24T12:35:35;1.40;;;1.20;;
25349;SDS011;13302;48.796;11.978;2023-04-24T12:38:23;1.03;;;1.00;;
25349;SDS011;13302;48.796;11.978;2023-04-24T12:41:12;2.13;;;2.03;;
25349;SDS011;13302;48.796;11.978;2023-04-24T12:44:00;1.43;;;1.43;;
25349;SDS011;13302;48.796;11.978;2023-04-24T12:46:47;1.20;;;1.10;;
25349;SDS011;13302;48.796;11.978;2023-04-24T12:49:34;1.30;;;1.00;;
25349;SDS011;13302;48.796;11.978;2023-04-24T12:52:22;0.80;;;0.80;;
25349;SDS011;13302;48.796;11.978;2023-04-24T12:55:10;1.20;;;1.10;;
25349;SDS011;13302;48.796;11.978;2023-04-24T12:57:58;0.80;;;0.80;;
25349;SDS011;13302;48.796;11.978;2023-04-24T13:00:46;1.60;;;1.00;;
25349;SDS011;13302;48.796;11.978;2023-04-24T13:03:35;0.83;;;0.83;;
25349;SDS011;13302;48.796;11.978;2023-04-24T13:06:22;1.40;;;1.40;;
25349;SDS011;13302;48.796;11.978;2023-04-24T13:09:09;1.30;;;1.30;;
25349;SDS011;13302;48.796;11.978;2023-04-24T13:11:56;1.77;;;1.20;;
25349;SDS011;13302;48.796;11.978;2023-04-24T13:14:43;1.40;;;1.30;;
25349;SDS011;13302;48.796;11.978;2023-04-24T13:17:30;1.27;;;1.20;;
25349;SDS011;13302;48.796;11.978;2023-04-24T13:20:17;0.60;;;0.60;;
25349;SDS011;13302;48.796;11.978;2023-04-24T13:23:05;1.07;;;0.90;;
25349;SDS011;13302;48.796;11.978;2023-04-24T13:25:52;1.40;;;1.40;;
25349;SDS011;13302;48.796;11.978;2023-04-24T13:28:44;1.23;;;1.17;;
25349;SDS011;13302;48.796;11.978;2023-04-24T13:31:31;0.90;;;0.90;;
25349;SDS011;13302;48.796;11.978;2023-04-24T13:34:18;0.80;;;0.80;;
25349;SDS011;13302;48.796;11.978;2023-04-24T13:37:05;1.03;;;1.00;;
25349;SDS011;13302;48.796;11.978;2023-04-24T13:39:53;0.90;;;0.90;;
25349;SDS011;13302;48.796;11.978;2023-04-24T13:42:40;0.80;;;0.77;;
25349;SDS011;13302;48.796;11.978;2023-04-24T13:45:27;1.07;;;0.90;;
25349;SDS011;13302;48.796;11.978;2023-04-24T13:48:14;0.90;;;0.90;;
25349;SDS011;13302;48.796;11.978;2023-04-24T13:51:02;0.90;;;0.90;;
25349;SDS011;13302;48.796;11.978;2023-04-24T13:53:49;0.60;;;0.60;;
25349;SDS011;13302;48.796;11.978;2023-04-24T13:56:36;0.70;;;0.70;;
25349;SDS011;13302;48.796;11.978;2023-04-24T13:59:23;0.73;;;0.50;;
25349;SDS011;13302;48.796;11.978;2023-04-24T14:02:10;0.60;;;0.60;;
25349;SDS011;13302;48.796;11.978;2023-04-24T14:04:57;0.80;;;0.80;;
25349;SDS011;13302;48.796;11.978;2023-04-24T14:07:45;1.93;;;0.90;;
25349;SDS011;13302;48.796;11.978;2023-04-24T14:10:32;0.70;;;0.70;;
25349;SDS011;13302;48.796;11.978;2023-04-24T14:13:18;0.60;;;0.50;;
25349;SDS011;13302;48.796;11.978;2023-04-24T14:16:06;3.10;;;0.90;;
25349;SDS011;13302;48.796;11.978;2023-04-24T14:18:54;1.23;;;0.77;;
25349;SDS011;13302;48.796;11.978;2023-04-24T14:21:41;0.77;;;0.77;;
25349;SDS011;13302;48.796;11.978;2023-04-24T14:24:28;0.63;;;0.63;;
25349;SDS011;13302;48.796;11.978;2023-04-24T14:27:15;0.70;;;0.70;;
25349;SDS011;13302;48.796;11.978;2023-04-24T14:30:02;1.90;;;1.00;;
25349;SDS011;13302;48.796;11.978;2023-04-24T14:32:51;0.70;;;0.70;;
25349;SDS011;13302;48.796;11.978;2023-04-24T14:35:38;0.50;;;0.50;;
25349;SDS011;13302;48.796;11.978;2023-04-24T14:38:26;0.70;;;0.70;;
25349;SDS011;13302;48.796;11.978;2023-04-24T14:41:13;1.20;;;0.80;;
25349;SDS011;13302;48.796;11.978;2023-04-24T14:44:01;0.53;;;0.53;;
25349;SDS011;13302;48.796;11.978;2023-04-24T14:46:49;0.70;;;0.70;;
25349;SDS011;13302;48.796;11.978;2023-04-24T14:49:36;0.70;;;0.70;;
25349;SDS011;13302;48.796;11.978;2023-04-24T14:52:23;0.70;;;0.70;;
25349;SDS011;13302;48.796;11.978;2023-04-24T14:55:10;0.70;;;0.70;;
25349;SDS011;13302;48.796;11.978;2023-04-24T14:57:58;1.73;;;0.80;;
25349;SDS011;13302;48.796;11.978;2023-04-24T15:00:45;0.90;;;0.90;;
25349;SDS011;13302;48.796;11.978;2023-04-24T15:03:32;0.83;;;0.70;;
25349;SDS011;13302;48.796;11.978;2023-04-24T15:06:19;0.60;;;0.60;;
25349;SDS011;13302;48.796;11.978;2023-04-24T15:09:07;0.73;;;0.73;;
25349;SDS011;13302;48.796;11.978;2023-04-24T15:11:54;1.40;;;0.70;;
25349;SDS011;13302;48.796;11.978;2023-04-24T15:14:41;0.60;;;0.60;;
25349;SDS011;13302;48.796;11.978;2023-04-24T15:17:28;0.50;;;0.50;;
25349;SDS011;13302;48.796;11.978;2023-04-24T15:20:15;1.17;;;0.73;;
25349;SDS011;13302;48.796;11.978;2023-04-24T15:23:02;0.70;;;0.70;;
25349;SDS011;13302;48.796;11.978;2023-04-24T15:25:49;0.60;;;0.60;;
25349;SDS011;13302;48.796;11.978;2023-04-24T15:28:36;2.43;;;0.80;;
25349;SDS011;13302;48.796;11.978;2023-04-24T15:31:23;0.80;;;0.80;;
25349;SDS011;13302;48.796;11.978;2023-04-24T15:34:11;0.90;;;0.90;;
25349;SDS011;13302;48.796;11.978;2023-04-24T15:36:58;1.17;;;1.07;;
25349;SDS011;13302;48.796;11.978;2023-04-24T15:39:46;0.80;;;0.80;;
25349;SDS011;13302;48.796;11.978;2023-04-24T15:42:33;0.80;;;0.80;;
25349;SDS011;13302;48.796;11.978;2023-04-24T15:45:20;0.80;;;0.80;;
25349;SDS011;13302;48.796;11.978;2023-04-24T15:48:07;2.00;;;0.90;;
25349;SDS011;13302;48.796;11.978;2023-04-24T15:50:54;0.70;;;0.70;;
25349;SDS011;13302;48.796;11.978;2023-04-24T15:53:41;0.70;;;0.70;;
25349;SDS011;13302;48.796;11.978;2023-04-24T15:56:29;0.80;;;0.80;;
25349;SDS011;13302;48.796;11.978;2023-04-24T15:59:17;0.80;;;0.80;;
25349;SDS011;13302;48.796;11.978;2023-04-24T16:02:04;0.73;;;0.73;;
25349;SDS011;13302;48.796;11.978;2023-04-24T16:04:51;0.90;;;0.90;;
25349;SDS011;13302;48.796;11.978;2023-04-24T16:07:39;0.87;;;0.87;;
25349;SDS011;13302;48.796;11.978;2023-04-24T16:10:26;1.40;;;0.97;;
25349;SDS011;13302;48.796;11.978;2023-04-24T16:13:16;1.00;;;1.00;;
25349;SDS011;13302;48.796;11.978;2023-04-24T16:16:06;0.80;;;0.80;;
25349;SDS011;13302;48.796;11.978;2023-04-24T16:18:54;0.80;;;0.80;;
25349;SDS011;13302;48.796;11.978;2023-04-24T16:21:41;1.07;;;1.07;;
25349;SDS011;13302;48.796;11.978;2023-04-24T16:24:28;0.97;;;0.90;;
25349;SDS011;13302;48.796;11.978;2023-04-24T16:27:15;0.70;;;0.70;;
25349;SDS011;13302;48.796;11.978;2023-04-24T16:30:02;0.80;;;0.80;;
25349;SDS011;13302;48.796;11.978;2023-04-24T16:32:51;0.90;;;0.90;;
25349;SDS011;13302;48.796;11.978;2023-04-24T16:35:38;0.83;;;0.80;;
25349;SDS011;13302;48.796;11.978;2023-04-24T16:38:25;0.80;;;0.80;;
25349;SDS011;13302;48.796;11.978;2023-04-24T16:41:12;0.70;;;0.70;;
25349;SDS011;13302;48.796;11.978;2023-04-24T16:43:59;1.03;;;0.70;;